createdAt,value
2016-12-13T00:00:45.839Z,69.29
2016-12-13T00:01:45.535Z,68.91
2016-12-13T00:02:45.863Z,69.48
2016-12-13T00:03:45.886Z,69.38
2016-12-13T00:04:45.890Z,69.38
2016-12-13T00:05:45.903Z,68.73
2016-12-13T00:06:45.671Z,69.1
2016-12-13T00:07:45.933Z,69.38
2016-12-13T00:08:45.625Z,69.1
2016-12-13T00:09:45.957Z,69.01
2016-12-13T00:10:45.972Z,68.35
2016-12-13T00:11:45.668Z,68.44
2016-12-13T00:12:45.681Z,68.15
2016-12-13T00:13:46.010Z,68.06
2016-12-13T00:14:45.706Z,67.58
2016-12-13T00:15:45.719Z,67.4
2016-12-13T00:16:45.739Z,67.11
2016-12-13T00:17:46.065Z,66.93
2016-12-13T00:18:45.759Z,67.68
2016-12-13T00:19:46.096Z,67.58
2016-12-13T00:20:45.792Z,67.11
2016-12-13T00:21:45.800Z,67.49
2016-12-13T00:22:45.811Z,67.21
2016-12-13T00:23:45.826Z,66.74
2016-12-13T00:24:46.152Z,66.45
2016-12-13T00:25:45.850Z,67.02
2016-12-13T00:26:45.868Z,67.4
2016-12-13T00:27:46.193Z,67.11
2016-12-13T00:28:46.205Z,66.54
2016-12-13T00:29:46.224Z,66.64
2016-12-13T00:30:46.229Z,67.02
2016-12-13T00:31:45.932Z,67.27
2016-12-13T00:32:45.943Z,67.65
2016-12-13T00:33:45.973Z,67.58
2016-12-13T00:34:46.286Z,67.58
2016-12-13T00:35:45.983Z,68.06
2016-12-13T00:36:46.000Z,67.49
2016-12-13T00:37:46.007Z,67.49
2016-12-13T00:38:46.338Z,67.58
2016-12-13T00:39:46.349Z,67.4
2016-12-13T00:40:46.052Z,67.58
2016-12-13T00:41:46.374Z,67.77
2016-12-13T00:42:46.071Z,67.4
2016-12-13T00:43:46.088Z,67.58
2016-12-13T00:44:46.415Z,67.4
2016-12-13T00:45:46.428Z,68.15
2016-12-13T00:46:46.124Z,67.96
2016-12-13T00:47:46.138Z,68.15
2016-12-13T00:48:46.467Z,68.06
2016-12-13T00:49:46.163Z,68.15
2016-12-13T00:50:46.493Z,67.58
2016-12-13T00:51:46.191Z,67.11
2016-12-13T00:52:46.206Z,66.74
2016-12-13T00:53:46.535Z,66.54
2016-12-13T00:54:46.544Z,66.07
2016-12-13T00:55:46.260Z,65.69
2016-12-13T00:56:46.273Z,65.78
2016-12-13T00:57:46.272Z,65.97
2016-12-13T00:58:46.282Z,66.83
2016-12-13T00:59:46.611Z,67.46
2016-12-13T01:00:46.624Z,67.49
2016-12-13T01:01:46.322Z,67.49
2016-12-13T01:02:46.653Z,67.21
2016-12-13T01:03:46.662Z,66.83
2016-12-13T01:04:46.677Z,66.64
2016-12-13T01:05:46.379Z,67.08
2016-12-13T01:06:46.385Z,67.3
2016-12-13T01:07:46.401Z,67.36
2016-12-13T01:08:46.413Z,66.32
2016-12-13T01:09:46.743Z,65.75
2016-12-13T01:10:46.439Z,65.56
2016-12-13T01:11:46.765Z,65.37
2016-12-13T01:12:46.783Z,66.32
2016-12-13T01:13:46.792Z,66.41
2016-12-13T01:14:46.805Z,66.32
2016-12-13T01:15:46.504Z,65.94
2016-12-13T01:16:46.882Z,65.37
2016-12-13T01:17:46.530Z,65.66
2016-12-13T01:18:46.543Z,66.89
2016-12-13T01:19:46.556Z,67.18
2016-12-13T01:20:46.885Z,66.22
2016-12-13T01:21:46.897Z,65.56
2016-12-13T01:22:46.598Z,66.7
2016-12-13T01:23:46.925Z,68.5
2016-12-13T01:24:46.621Z,68.69
2016-12-13T01:25:46.949Z,67.93
2016-12-13T01:26:46.651Z,67.65
2016-12-13T01:27:46.992Z,66.8
2016-12-13T01:28:46.989Z,66.6
2016-12-13T01:29:46.685Z,66.51
2016-12-13T01:30:46.697Z,66.89
2016-12-13T01:31:46.709Z,66.7
2016-12-13T01:32:46.725Z,66.41
2016-12-13T01:33:47.055Z,65.94
2016-12-13T01:34:46.748Z,66.32
2016-12-13T01:35:46.763Z,68.31
2016-12-13T01:36:47.091Z,66.99
2016-12-13T01:37:46.792Z,66.6
2016-12-13T01:38:47.124Z,66.13
2016-12-13T01:39:47.126Z,66.13
2016-12-13T01:40:46.827Z,65.94
2016-12-13T01:41:46.837Z,66.13
2016-12-13T01:42:46.851Z,67.27
2016-12-13T01:43:46.862Z,68.4
2016-12-13T01:44:46.877Z,68.5
2016-12-13T01:45:47.204Z,67.36
2016-12-13T01:46:46.941Z,66.7
2016-12-13T01:47:47.231Z,67.27
2016-12-13T01:48:46.928Z,67.46
2016-12-13T01:49:47.255Z,67.83
2016-12-13T01:50:46.977Z,68.21
2016-12-13T01:51:46.966Z,67.65
2016-12-13T01:52:47.311Z,67.46
2016-12-13T01:53:47.339Z,67.46
2016-12-13T01:54:47.322Z,67.36
2016-12-13T01:55:47.016Z,68.4
2016-12-13T01:56:47.033Z,68.59
2016-12-13T01:57:47.042Z,69.13
2016-12-13T01:58:47.056Z,69.03
2016-12-13T01:59:47.381Z,69.13
2016-12-13T02:00:47.083Z,69.03
2016-12-13T02:01:47.407Z,68.94
2016-12-13T02:02:47.110Z,69.22
2016-12-13T02:03:47.118Z,68.4
2016-12-13T02:04:47.133Z,68.4
2016-12-13T02:05:47.143Z,68.31
2016-12-13T02:06:47.472Z,67.36
2016-12-13T02:07:47.173Z,67.74
2016-12-13T02:08:47.181Z,67.55
2016-12-13T02:09:47.194Z,67.83
2016-12-13T02:10:47.207Z,68.31
2016-12-13T02:11:47.589Z,68.5
2016-12-13T02:12:47.550Z,68.59
2016-12-13T02:13:47.561Z,68.31
2016-12-13T02:14:47.258Z,68.02
2016-12-13T02:15:47.616Z,69.35
2016-12-13T02:16:47.284Z,68.98
2016-12-13T02:17:47.295Z,69.17
2016-12-13T02:18:47.309Z,68.31
2016-12-13T02:19:47.634Z,68.4
2016-12-13T02:20:47.651Z,67.74
2016-12-13T02:21:47.664Z,67.55
2016-12-13T02:22:47.673Z,67.36
2016-12-13T02:23:47.688Z,67.55
2016-12-13T02:24:47.732Z,67.55
2016-12-13T02:25:47.402Z,66.7
2016-12-13T02:26:47.726Z,67.36
2016-12-13T02:27:47.741Z,67.27
2016-12-13T02:28:47.749Z,67.27
2016-12-13T02:29:47.763Z,67.08
2016-12-13T02:30:47.460Z,67.27
2016-12-13T02:31:47.472Z,67.46
2016-12-13T02:32:47.806Z,67.33
2016-12-13T02:33:47.497Z,67.43
2016-12-13T02:34:47.511Z,66.86
2016-12-13T02:35:47.855Z,67.52
2016-12-13T02:36:47.850Z,67.43
2016-12-13T02:37:47.867Z,67.43
2016-12-13T02:38:47.877Z,66.76
2016-12-13T02:39:47.888Z,67.33
2016-12-13T02:40:47.902Z,67.43
2016-12-13T02:41:47.916Z,67.33
2016-12-13T02:42:47.640Z,67.43
2016-12-13T02:43:47.625Z,66.86
2016-12-13T02:44:47.952Z,67.24
2016-12-13T02:45:47.648Z,67.52
2016-12-13T02:46:47.979Z,66.86
2016-12-13T02:47:47.672Z,67.52
2016-12-13T02:48:48.000Z,67.43
2016-12-13T02:49:48.013Z,67.43
2016-12-13T02:50:47.710Z,67.99
2016-12-13T02:51:48.040Z,66.95
2016-12-13T02:52:47.738Z,66.67
2016-12-13T02:53:48.080Z,66.47
2016-12-13T02:54:47.759Z,66.38
2016-12-13T02:55:48.091Z,66.19
2016-12-13T02:56:48.151Z,66.57
2016-12-13T02:57:47.800Z,66.86
2016-12-13T02:58:48.125Z,67.14
2016-12-13T02:59:47.824Z,68.27
2016-12-13T03:00:48.157Z,68.94
2016-12-13T03:01:47.855Z,69.13
2016-12-13T03:02:48.177Z,69.32
2016-12-13T03:03:48.188Z,68.84
2016-12-13T03:04:48.212Z,68.27
2016-12-13T03:05:47.906Z,69.03
2016-12-13T03:06:48.231Z,68.84
2016-12-13T03:07:48.237Z,67.65
2016-12-13T03:08:48.252Z,67.33
2016-12-13T03:09:47.946Z,67.52
2016-12-13T03:10:47.961Z,66.95
2016-12-13T03:11:48.287Z,66.57
2016-12-13T03:12:48.304Z,66.95
2016-12-13T03:13:47.998Z,67.24
2016-12-13T03:14:48.010Z,67.24
2016-12-13T03:15:48.019Z,67.33
2016-12-13T03:16:48.350Z,68.37
2016-12-13T03:17:48.362Z,67.9
2016-12-13T03:18:48.059Z,67.8
2016-12-13T03:19:48.388Z,68.18
2016-12-13T03:20:48.082Z,68.08
2016-12-13T03:21:48.098Z,67.36
2016-12-13T03:22:48.424Z,67.24
2016-12-13T03:23:48.438Z,67.33
2016-12-13T03:24:48.136Z,67.18
2016-12-13T03:25:48.149Z,66.6
2016-12-13T03:26:48.475Z,67.27
2016-12-13T03:27:48.176Z,67.08
2016-12-13T03:28:48.501Z,66.99
2016-12-13T03:29:48.515Z,67.43
2016-12-13T03:30:48.525Z,68.37
2016-12-13T03:31:48.537Z,68.27
2016-12-13T03:32:48.235Z,68.31
2016-12-13T03:33:48.249Z,68.12
2016-12-13T03:34:48.575Z,69.26
2016-12-13T03:35:48.274Z,68.31
2016-12-13T03:36:48.601Z,68.5
2016-12-13T03:37:48.615Z,68.4
2016-12-13T03:38:48.308Z,68.4
2016-12-13T03:39:48.636Z,68.12
2016-12-13T03:40:48.652Z,68.31
2016-12-13T03:41:48.401Z,68.5
2016-12-13T03:42:48.359Z,68.21
2016-12-13T03:43:48.371Z,67.93
2016-12-13T03:44:48.700Z,67.46
2016-12-13T03:45:48.716Z,67.18
2016-12-13T03:46:48.407Z,66.89
2016-12-13T03:47:48.439Z,66.03
2016-12-13T03:48:48.451Z,65.84
2016-12-13T03:49:48.761Z,65.66
2016-12-13T03:50:48.777Z,65.75
2016-12-13T03:51:48.472Z,65.56
2016-12-13T03:52:48.482Z,65.75
2016-12-13T03:53:48.494Z,65.56
2016-12-13T03:54:48.511Z,65.37
2016-12-13T03:55:48.835Z,65.19
2016-12-13T03:56:48.585Z,65.66
2016-12-13T03:57:48.879Z,64.42
2016-12-13T03:58:48.871Z,64.23
2016-12-13T03:59:48.887Z,65.28
2016-12-13T04:00:48.586Z,65.28
2016-12-13T04:01:48.913Z,66.13
2016-12-13T04:02:48.607Z,65.84
2016-12-13T04:03:48.937Z,66.51
2016-12-13T04:04:48.950Z,67.36
2016-12-13T04:05:48.645Z,68.21
2016-12-13T04:06:48.657Z,67.93
2016-12-13T04:07:48.986Z,67.65
2016-12-13T04:08:48.692Z,67.46
2016-12-13T04:09:49.013Z,67.36
2016-12-13T04:10:48.708Z,66.89
2016-12-13T04:11:49.039Z,67.08
2016-12-13T04:12:48.732Z,66.89
2016-12-13T04:13:48.744Z,66.51
2016-12-13T04:14:48.754Z,66.41
2016-12-13T04:15:49.087Z,66.32
2016-12-13T04:16:48.784Z,66.51
2016-12-13T04:17:48.822Z,66.6
2016-12-13T04:18:48.806Z,66.51
2016-12-13T04:19:48.820Z,66.76
2016-12-13T04:20:48.833Z,66.47
2016-12-13T04:21:49.162Z,66.38
2016-12-13T04:22:48.858Z,66.09
2016-12-13T04:23:49.191Z,66.47
2016-12-13T04:24:48.880Z,66.57
2016-12-13T04:25:48.895Z,66
2016-12-13T04:26:48.957Z,66.57
2016-12-13T04:27:49.235Z,66.57
2016-12-13T04:28:49.248Z,66.57
2016-12-13T04:29:48.944Z,66.95
2016-12-13T04:30:49.274Z,66.38
2016-12-13T04:31:49.285Z,66.28
2016-12-13T04:32:49.297Z,66.57
2016-12-13T04:33:49.001Z,66.28
2016-12-13T04:34:49.323Z,66.57
2016-12-13T04:35:49.019Z,66.19
2016-12-13T04:36:49.356Z,65.63
2016-12-13T04:37:49.360Z,65.81
2016-12-13T04:38:49.086Z,65.91
2016-12-13T04:39:49.071Z,65.72
2016-12-13T04:40:49.396Z,66.28
2016-12-13T04:42:49.419Z,67.05
2016-12-13T04:43:49.434Z,66.86
2016-12-13T04:44:49.448Z,66.57
2016-12-13T04:45:49.146Z,66.38
2016-12-13T04:46:49.156Z,66.95
2016-12-13T04:47:49.166Z,66.86
2016-12-13T04:48:49.181Z,66.86
2016-12-13T04:49:49.511Z,67.14
2016-12-13T04:50:49.523Z,67.24
2016-12-13T04:51:49.234Z,67.61
2016-12-13T04:52:49.247Z,66.95
2016-12-13T04:53:49.239Z,67.14
2016-12-13T04:54:49.254Z,66.67
2016-12-13T04:55:49.578Z,66.47
2016-12-13T04:56:49.695Z,66.38
2016-12-13T04:57:49.603Z,66.95
2016-12-13T04:58:49.617Z,67.33
2016-12-13T04:59:49.316Z,67.49
2016-12-13T05:00:49.324Z,67.33
2016-12-13T05:01:49.653Z,66.95
2016-12-13T05:02:49.353Z,67.33
2016-12-13T05:03:49.686Z,66.95
2016-12-13T05:04:49.690Z,67.05
2016-12-13T05:05:49.390Z,66.76
2016-12-13T05:06:49.399Z,66.95
2016-12-13T05:07:49.726Z,67.33
2016-12-13T05:08:49.737Z,66.76
2016-12-13T05:09:49.751Z,66.76
2016-12-13T05:10:49.762Z,67.43
2016-12-13T05:11:49.777Z,67.24
2016-12-13T05:12:49.784Z,66.86
2016-12-13T05:13:49.484Z,66.95
2016-12-13T05:14:49.495Z,67.24
2016-12-13T05:15:49.508Z,66.95
2016-12-13T05:16:49.840Z,67.05
2016-12-13T05:17:49.533Z,66.95
2016-12-13T05:18:49.541Z,66.86
2016-12-13T05:19:49.553Z,66.67
2016-12-13T05:20:49.907Z,67.14
2016-12-13T05:21:49.601Z,67.24
2016-12-13T05:22:49.592Z,67.33
2016-12-13T05:23:49.602Z,67.05
2016-12-13T05:24:49.933Z,66.09
2016-12-13T05:25:49.630Z,65.63
2016-12-13T05:26:49.640Z,65.53
2016-12-13T05:27:49.657Z,66.38
2016-12-13T05:28:49.666Z,67.33
2016-12-13T05:29:49.675Z,67.24
2016-12-13T05:30:49.692Z,66.95
2016-12-13T05:31:50.066Z,67.24
2016-12-13T05:32:50.030Z,67.43
2016-12-13T05:33:49.724Z,67.61
2016-12-13T05:34:49.738Z,67.05
2016-12-13T05:35:49.751Z,66.95
2016-12-13T05:36:49.763Z,67.71
2016-12-13T05:37:50.096Z,67.61
2016-12-13T05:38:50.100Z,67.86
2016-12-13T05:39:49.799Z,68.08
2016-12-13T05:40:49.809Z,67.43
2016-12-13T05:41:49.821Z,67.52
2016-12-13T05:42:49.856Z,67.61
2016-12-13T05:43:49.845Z,68.24
2016-12-13T05:44:50.196Z,67.77
2016-12-13T05:45:49.869Z,67.9
2016-12-13T05:46:49.886Z,66.86
2016-12-13T05:47:50.210Z,67.52
2016-12-13T05:48:49.909Z,66.67
2016-12-13T05:49:50.233Z,66.86
2016-12-13T05:50:50.248Z,66.47
2016-12-13T05:51:49.942Z,66.38
2016-12-13T05:52:49.957Z,66.28
2016-12-13T05:53:49.966Z,66.47
2016-12-13T05:54:49.980Z,67.52
2016-12-13T05:55:50.314Z,67.01
2016-12-13T05:56:50.007Z,67.01
2016-12-13T05:57:50.018Z,67.05
2016-12-13T05:58:50.027Z,66.76
2016-12-13T05:59:50.038Z,67.01
2016-12-13T06:00:50.050Z,67.05
2016-12-13T06:01:50.432Z,67.01
2016-12-13T06:02:50.106Z,67.24
2016-12-13T06:03:50.400Z,66.76
2016-12-13T06:04:50.414Z,66.76
2016-12-13T06:05:50.114Z,65.91
2016-12-13T06:06:50.449Z,65.97
2016-12-13T06:07:50.137Z,66.16
2016-12-13T06:08:50.148Z,66.35
2016-12-13T06:09:50.162Z,67.2
2016-12-13T06:10:50.172Z,66.73
2016-12-13T06:11:50.184Z,67.33
2016-12-13T06:12:50.513Z,66.95
2016-12-13T06:13:50.212Z,67.05
2016-12-13T06:14:50.536Z,66.86
2016-12-13T06:15:50.546Z,66.67
2016-12-13T06:16:50.244Z,67.24
2016-12-13T06:17:50.581Z,67.33
2016-12-13T06:18:50.584Z,67.49
2016-12-13T06:19:50.279Z,67.39
2016-12-13T06:20:50.293Z,67.71
2016-12-13T06:21:50.302Z,67.61
2016-12-13T06:22:50.631Z,67.2
2016-12-13T06:23:50.666Z,67.52
2016-12-13T06:24:50.467Z,67.33
2016-12-13T06:25:50.669Z,67.52
2016-12-13T06:26:50.678Z,67.9
2016-12-13T06:27:50.706Z,67.61
2016-12-13T06:28:50.419Z,66.67
2016-12-13T06:29:50.399Z,66.67
2016-12-13T06:30:50.409Z,66.09
2016-12-13T06:31:50.744Z,65.72
2016-12-13T06:32:50.752Z,65.72
2016-12-13T06:33:50.761Z,66.19
2016-12-13T06:34:50.461Z,66.09
2016-12-13T06:35:50.788Z,66.28
2016-12-13T06:36:50.482Z,67.05
2016-12-13T06:37:50.810Z,67.33
2016-12-13T06:38:50.836Z,67.01
2016-12-13T06:39:50.612Z,66.28
2016-12-13T06:40:50.530Z,66.47
2016-12-13T06:41:50.863Z,66.95
2016-12-13T06:42:50.870Z,66.57
2016-12-13T06:43:50.567Z,66.19
2016-12-13T06:44:50.899Z,65.81
2016-12-13T06:45:50.592Z,66.28
2016-12-13T06:46:50.609Z,65.72
2016-12-13T06:47:50.613Z,65.25
2016-12-13T06:48:50.628Z,66.57
2016-12-13T06:49:50.956Z,66.67
2016-12-13T06:50:50.969Z,67.14
2016-12-13T06:51:50.978Z,66.86
2016-12-13T06:52:50.675Z,66.95
2016-12-13T06:53:51.003Z,66.86
2016-12-13T06:54:50.699Z,66.47
2016-12-13T06:55:50.711Z,66.47
2016-12-13T06:56:50.724Z,66.38
2016-12-13T06:57:51.051Z,66.67
2016-12-13T06:58:50.748Z,66.92
2016-12-13T06:59:51.072Z,66.86
2016-12-13T07:00:51.088Z,67.2
2016-12-13T07:01:50.782Z,67.58
2016-12-13T07:02:50.797Z,68.05
2016-12-13T07:03:50.807Z,67.2
2016-12-13T07:04:50.820Z,67.3
2016-12-13T07:05:51.146Z,66.92
2016-12-13T07:06:50.844Z,66.44
2016-12-13T07:07:50.873Z,66.53
2016-12-13T07:08:50.885Z,66.63
2016-12-13T07:09:51.197Z,66.38
2016-12-13T07:10:51.206Z,66.09
2016-12-13T07:11:50.904Z,66.09
2016-12-13T07:12:50.913Z,66.19
2016-12-13T07:13:50.930Z,66
2016-12-13T07:14:51.255Z,65.72
2016-12-13T07:15:51.266Z,66.19
2016-12-13T07:16:51.277Z,66.63
2016-12-13T07:17:50.974Z,67.11
2016-12-13T07:18:50.987Z,66.44
2016-12-13T07:19:50.998Z,66.57
2016-12-13T07:20:51.009Z,66.38
2016-12-13T07:21:51.023Z,67.14
2016-12-13T07:22:51.348Z,67.43
2016-12-13T07:23:51.045Z,67.24
2016-12-13T07:24:51.056Z,67.52
2016-12-13T07:25:51.385Z,67.24
2016-12-13T07:26:51.394Z,66.86
2016-12-13T07:27:51.092Z,66.95
2016-12-13T07:28:51.109Z,66.47
2016-12-13T07:29:51.141Z,66.38
2016-12-13T07:30:51.442Z,66.57
2016-12-13T07:31:51.505Z,67.24
2016-12-13T07:32:51.152Z,66.95
2016-12-13T07:33:51.167Z,67.05
2016-12-13T07:34:51.176Z,66.57
2016-12-13T07:35:51.199Z,66.19
2016-12-13T07:36:51.519Z,66.47
2016-12-13T07:37:51.214Z,66.47
2016-12-13T07:38:51.223Z,66.19
2016-12-13T07:39:51.237Z,66.19
2016-12-13T07:40:51.251Z,65.63
2016-12-13T07:41:51.259Z,65.53
2016-12-13T07:42:51.274Z,65.63
2016-12-13T07:43:51.289Z,66.19
2016-12-13T07:44:51.331Z,66.09
2016-12-13T07:45:51.633Z,65.63
2016-12-13T07:46:51.640Z,66
2016-12-13T07:47:51.652Z,65.91
2016-12-13T07:48:51.345Z,66.28
2016-12-13T07:49:51.674Z,66.95
2016-12-13T07:50:51.686Z,66.95
2016-12-13T07:51:51.382Z,67.43
2016-12-13T07:52:51.710Z,67.43
2016-12-13T07:53:51.735Z,66.86
2016-12-13T07:54:51.419Z,66.38
2016-12-13T07:55:51.750Z,66.89
2016-12-13T07:56:51.444Z,66.32
2016-12-13T07:57:51.456Z,66.32
2016-12-13T07:58:51.467Z,66.51
2016-12-13T07:59:51.480Z,66.57
2016-12-13T08:00:51.492Z,67.05
2016-12-13T08:01:51.820Z,67.33
2016-12-13T08:02:51.839Z,67.52
2016-12-13T08:03:51.844Z,67.43
2016-12-13T08:04:51.548Z,67.05
2016-12-13T08:05:51.561Z,67.43
2016-12-13T08:06:51.566Z,66.86
2016-12-13T08:07:51.577Z,67.33
2016-12-13T08:08:51.908Z,67.8
2016-12-13T08:09:51.604Z,67.93
2016-12-13T08:10:51.614Z,67.27
2016-12-13T08:11:51.948Z,67.36
2016-12-13T08:12:51.958Z,67.65
2016-12-13T08:13:51.660Z,67.27
2016-12-13T08:14:51.990Z,66.6
2016-12-13T08:15:51.991Z,65.66
2016-12-13T08:16:51.691Z,65.75
2016-12-13T08:17:51.701Z,65.66
2016-12-13T08:18:51.715Z,65.28
2016-12-13T08:19:52.045Z,64.81
2016-12-13T08:20:52.055Z,64.61
2016-12-13T08:21:52.070Z,65.09
2016-12-13T08:22:52.080Z,65.19
2016-12-13T08:23:52.092Z,64.71
2016-12-13T08:24:52.109Z,64.74
2016-12-13T08:25:51.803Z,64.55
2016-12-13T08:26:51.866Z,64.65
2016-12-13T08:27:51.831Z,65.59
2016-12-13T08:28:51.840Z,65.41
2016-12-13T08:29:51.855Z,65.59
2016-12-13T08:30:51.871Z,65.22
2016-12-13T08:31:51.881Z,64.74
2016-12-13T08:32:52.209Z,64.93
2016-12-13T08:33:52.224Z,64.46
2016-12-13T08:34:51.919Z,64.46
2016-12-13T08:35:52.250Z,64.74
2016-12-13T08:36:51.944Z,65.12
2016-12-13T08:37:51.956Z,65.41
2016-12-13T08:38:51.972Z,65.41
2016-12-13T08:39:52.296Z,64.93
2016-12-13T08:40:51.997Z,64.74
2016-12-13T08:41:52.013Z,64.55
2016-12-13T08:42:52.340Z,64.36
2016-12-13T08:43:52.355Z,64.4
2016-12-13T08:44:52.366Z,64.49
2016-12-13T08:45:52.062Z,64.3
2016-12-13T08:46:52.394Z,64.3
2016-12-13T08:47:52.092Z,64.11
2016-12-13T08:48:52.102Z,63.92
2016-12-13T08:49:52.429Z,64.11
2016-12-13T08:50:52.127Z,63.54
2016-12-13T08:51:52.458Z,63.26
2016-12-13T08:52:52.469Z,63.54
2016-12-13T08:53:52.168Z,63.35
2016-12-13T08:54:52.183Z,63.73
2016-12-13T08:55:52.512Z,63.54
2016-12-13T08:56:52.523Z,63.73
2016-12-13T08:57:52.539Z,63.64
2016-12-13T08:58:52.550Z,63.26
2016-12-13T08:59:52.564Z,62.97
2016-12-13T09:00:52.261Z,63.26
2016-12-13T09:01:52.283Z,63.73
2016-12-13T09:02:52.293Z,63.64
2016-12-13T09:03:52.619Z,64.01
2016-12-13T09:04:52.319Z,63.35
2016-12-13T09:05:52.329Z,63.64
2016-12-13T09:06:52.345Z,64.01
2016-12-13T09:07:52.355Z,64.4
2016-12-13T09:08:52.371Z,64.49
2016-12-13T09:09:52.700Z,63.35
2016-12-13T09:10:52.400Z,63.39
2016-12-13T09:11:52.411Z,63.48
2016-12-13T09:12:52.758Z,63.76
2016-12-13T09:13:52.439Z,64.14
2016-12-13T09:14:52.769Z,62.82
2016-12-13T09:15:52.468Z,61.42
2016-12-13T09:16:52.800Z,59.93
2016-12-13T09:17:52.493Z,58.7
2016-12-13T09:18:52.510Z,57.94
2016-12-13T09:19:52.524Z,58.03
2016-12-13T09:20:52.538Z,58.8
2016-12-13T09:21:52.558Z,58.98
2016-12-13T09:22:52.884Z,57.59
2016-12-13T09:23:52.899Z,55.24
2016-12-13T09:24:52.600Z,54.79
2016-12-13T09:25:52.930Z,55.17
2016-12-13T09:26:52.947Z,55.08
2016-12-13T09:27:52.645Z,55.55
2016-12-13T09:28:52.660Z,54.89
2016-12-13T09:29:52.993Z,54.25
2016-12-13T09:30:53.011Z,52.37
2016-12-13T09:31:52.711Z,49.73
2016-12-13T09:32:52.726Z,48.04
2016-12-13T09:33:53.059Z,46.99
2016-12-13T09:34:53.076Z,46.23
2016-12-13T09:35:52.787Z,46.13
2016-12-13T09:36:52.795Z,45.08
2016-12-13T09:37:52.813Z,44.82
2016-12-13T09:38:53.146Z,44.92
2016-12-13T09:39:53.162Z,43.84
2016-12-13T09:40:53.182Z,44.8
2016-12-13T09:41:52.886Z,44.8
2016-12-13T09:42:53.220Z,44.42
2016-12-13T09:43:52.921Z,44.06
2016-12-13T09:44:53.258Z,43.77
2016-12-13T09:45:53.294Z,42.91
2016-12-13T09:46:52.991Z,43.13
2016-12-13T09:47:53.316Z,43.13
2016-12-13T09:48:53.337Z,42.84
2016-12-13T09:49:53.357Z,42.27
2016-12-13T09:50:53.060Z,41.79
2016-12-13T09:51:53.398Z,40.19
2016-12-13T09:52:53.096Z,41.41
2016-12-13T09:53:53.137Z,42.74
2016-12-13T09:54:53.149Z,43.41
2016-12-13T09:55:53.479Z,42.46
2016-12-13T09:56:53.512Z,41.52
2016-12-13T09:57:53.201Z,40.76
2016-12-13T09:58:53.224Z,40.76
2016-12-13T09:59:53.274Z,41.26
2016-12-13T10:00:53.262Z,40.3
2016-12-13T10:01:53.670Z,39.44
2016-12-13T10:02:53.657Z,38.39
2016-12-13T10:03:53.325Z,38.85
2016-12-13T10:04:53.345Z,40.2
2016-12-13T10:05:53.684Z,39.54
2016-12-13T10:06:53.387Z,38.96
2016-12-13T10:07:53.409Z,38.6
2016-12-13T10:08:53.434Z,37.92
2016-12-13T10:09:53.767Z,37.17
2016-12-13T10:10:53.470Z,38.12
2016-12-13T10:11:53.808Z,38.51
2016-12-13T10:12:53.513Z,38.41
2016-12-13T10:13:53.851Z,37.93
2016-12-13T10:14:53.554Z,37.17
2016-12-13T10:15:53.576Z,37.26
2016-12-13T10:16:53.914Z,36.79
2016-12-13T10:17:53.620Z,36.5
2016-12-13T10:18:53.639Z,35.83
2016-12-13T10:19:53.662Z,36.6
2016-12-13T10:20:53.999Z,36.6
2016-12-13T10:21:54.022Z,36.21
2016-12-13T10:22:53.727Z,36.41
2016-12-13T10:23:54.079Z,35.85
2016-12-13T10:24:54.086Z,36.52
2016-12-13T10:25:53.787Z,36.8
2016-12-13T10:26:54.126Z,35.75
2016-12-13T10:27:54.146Z,36.23
2016-12-13T10:28:53.855Z,36.23
2016-12-13T10:29:53.873Z,36.43
2016-12-13T10:30:53.921Z,35.1
2016-12-13T10:31:53.923Z,35.47
2016-12-13T10:32:53.948Z,35.1
2016-12-13T10:33:53.957Z,35.68
2016-12-13T10:34:53.982Z,35.96
2016-12-13T10:35:54.328Z,36.25
2016-12-13T10:36:54.338Z,35.77
2016-12-13T10:37:54.361Z,34.72
2016-12-13T10:38:54.067Z,35
2016-12-13T10:39:54.403Z,34.45
2016-12-13T10:40:54.107Z,34.05
2016-12-13T10:41:54.494Z,35.49
2016-12-13T10:42:54.151Z,35.2
2016-12-13T10:43:54.489Z,34.91
2016-12-13T10:44:54.510Z,36.04
2016-12-13T10:45:54.215Z,36.21
2016-12-13T10:46:54.236Z,36.43
2016-12-13T10:47:54.276Z,37.19
2016-12-13T10:48:54.277Z,37.95
2016-12-13T10:49:54.300Z,36.99
2016-12-13T10:50:54.635Z,36.82
2016-12-13T10:51:54.340Z,36.92
2016-12-13T10:52:54.683Z,36.15
2016-12-13T10:53:54.386Z,35.69
2016-12-13T10:54:54.737Z,35.88
2016-12-13T10:55:54.435Z,35.12
2016-12-13T10:56:54.815Z,34.55
2016-12-13T10:57:54.799Z,35.31
2016-12-13T10:58:54.805Z,35.22
2016-12-13T10:59:54.511Z,35.12
2016-12-13T11:00:54.847Z,34.47
2016-12-13T11:01:54.557Z,34.37
2016-12-13T11:02:54.579Z,34.56
2016-12-13T11:03:54.913Z,34.08
2016-12-13T11:04:54.934Z,33.89
2016-12-13T11:05:54.638Z,33.89
2016-12-13T11:06:54.660Z,33.89
2016-12-13T11:07:54.997Z,33.22
2016-12-13T11:08:54.701Z,32.38
2016-12-13T11:09:54.724Z,32.86
2016-12-13T11:10:55.060Z,32.86
2016-12-13T11:11:54.815Z,31.8
2016-12-13T11:12:55.106Z,32.57
2016-12-13T11:13:54.808Z,32.95
2016-12-13T11:14:54.830Z,32.38
2016-12-13T11:15:55.168Z,32.18
2016-12-13T11:16:55.189Z,32.47
2016-12-13T11:17:54.903Z,32.86
2016-12-13T11:18:55.237Z,32.47
2016-12-13T11:19:55.255Z,32.28
2016-12-13T11:20:54.960Z,32.18
2016-12-13T11:21:54.982Z,31.23
2016-12-13T11:22:55.320Z,31.13
2016-12-13T11:23:55.025Z,30.73
2016-12-13T11:24:55.053Z,31.98
2016-12-13T11:25:55.383Z,32.34
2016-12-13T11:26:55.092Z,32.63
2016-12-13T11:27:55.427Z,32.54
2016-12-13T11:28:55.458Z,32.73
2016-12-13T11:29:55.157Z,32.54
2016-12-13T11:30:55.493Z,33.2
2016-12-13T11:31:55.512Z,33.4
2016-12-13T11:32:55.541Z,33.69
2016-12-13T11:33:55.244Z,33.01
2016-12-13T11:34:55.263Z,33.2
2016-12-13T11:35:55.605Z,33.49
2016-12-13T11:36:55.697Z,33.95
2016-12-13T11:37:55.645Z,34.32
2016-12-13T11:38:55.662Z,35.57
2016-12-13T11:39:55.372Z,35.75
2016-12-13T11:40:55.391Z,35.93
2016-12-13T11:41:55.734Z,35.64
2016-12-13T11:42:55.436Z,35.57
2016-12-13T11:43:55.454Z,35.08
2016-12-13T11:44:55.482Z,34.43
2016-12-13T11:45:55.814Z,34.8
2016-12-13T11:46:55.835Z,35.66
2016-12-13T11:47:55.867Z,36.14
2016-12-13T11:48:55.568Z,34.61
2016-12-13T11:49:55.583Z,34.91
2016-12-13T11:50:55.920Z,34.55
2016-12-13T11:51:55.961Z,33.69
2016-12-13T11:52:55.964Z,32.06
2016-12-13T11:53:55.667Z,32.15
2016-12-13T11:54:56.005Z,33.2
2016-12-13T11:55:55.712Z,33.87
2016-12-13T11:56:55.733Z,34.16
2016-12-13T11:57:55.751Z,33.41
2016-12-13T11:58:55.776Z,32.75
2016-12-13T11:59:55.801Z,32.67
2016-12-13T12:00:56.134Z,32.57
2016-12-13T12:01:56.156Z,31.99
2016-12-13T12:02:56.179Z,30.75
2016-12-13T12:03:55.885Z,31.23
2016-12-13T12:04:55.908Z,31.99
2016-12-13T12:05:55.927Z,30.65
2016-12-13T12:06:56.263Z,30.36
2016-12-13T12:07:55.991Z,30.96
2016-12-13T12:08:56.306Z,30.84
2016-12-13T12:09:56.329Z,31.05
2016-12-13T12:10:56.369Z,30
2016-12-13T12:11:56.371Z,29.61
2016-12-13T12:12:56.393Z,30.09
2016-12-13T12:13:56.103Z,30.09
2016-12-13T12:14:56.435Z,29.33
2016-12-13T12:15:56.155Z,29.13
2016-12-13T12:16:56.480Z,29.04
2016-12-13T12:17:56.501Z,29.71
2016-12-13T12:18:56.209Z,30.08
2016-12-13T12:19:56.236Z,30.36
2016-12-13T12:20:56.567Z,31.79
2016-12-13T12:21:56.273Z,31.58
2016-12-13T12:22:56.297Z,31.87
2016-12-13T12:23:56.316Z,32.33
2016-12-13T12:24:56.337Z,32.62
2016-12-13T12:25:56.360Z,33.38
2016-12-13T12:26:56.750Z,33.28
2016-12-13T12:27:56.720Z,33.09
2016-12-13T12:28:56.742Z,32.06
2016-12-13T12:29:56.447Z,31.77
2016-12-13T12:30:56.474Z,32.06
2016-12-13T12:31:56.807Z,31.77
2016-12-13T12:32:56.828Z,32.14
2016-12-13T12:33:56.872Z,32.71
2016-12-13T12:34:56.871Z,32.54
2016-12-13T12:35:56.578Z,30.73
2016-12-13T12:36:56.914Z,30.73
2016-12-13T12:37:56.622Z,32.07
2016-12-13T12:38:56.645Z,30.93
2016-12-13T12:39:56.979Z,31.02
2016-12-13T12:40:57.001Z,30.64
2016-12-13T12:41:57.029Z,30.84
2016-12-13T12:42:57.046Z,30.65
2016-12-13T12:43:56.753Z,29.52
2016-12-13T12:44:56.773Z,29.9
2016-12-13T12:45:57.112Z,29.23
2016-12-13T12:46:57.133Z,29.33
2016-12-13T12:47:56.839Z,29.82
2016-12-13T12:48:56.860Z,30.2
2016-12-13T12:49:56.883Z,30.2
2016-12-13T12:50:56.906Z,29.53
2016-12-13T12:51:57.239Z,29.34
2016-12-13T12:52:57.265Z,30.01
2016-12-13T12:53:56.971Z,29.05
2016-12-13T12:54:57.307Z,28.96
2016-12-13T12:55:57.016Z,29.53
2016-12-13T12:56:57.419Z,28.86